createdAt,value
2022-12-15T00:00:13.042Z,-4.82
2022-12-15T00:02:57.971Z,-4.84
2022-12-15T00:05:43.029Z,-4.86
2022-12-15T00:08:29.227Z,-4.89
2022-12-15T00:11:14.655Z,-4.88
2022-12-15T00:14:00.189Z,-4.95
2022-12-15T00:16:46.133Z,-4.91
2022-12-15T00:19:31.142Z,-4.93
2022-12-15T00:22:16.250Z,-4.99
2022-12-15T00:25:01.392Z,-4.96
2022-12-15T00:27:47.054Z,-4.97
2022-12-15T00:30:32.194Z,-5.03
2022-12-15T00:33:17.241Z,-5.02
2022-12-15T00:36:02.348Z,-5.11
2022-12-15T00:38:42.699Z,-5.04
2022-12-15T00:41:10.319Z,-5.06
2022-12-15T00:43:37.346Z,-5.06
2022-12-15T00:46:23.630Z,-5.07
2022-12-15T00:48:52.760Z,-5.06
2022-12-15T00:51:19.902Z,-5.06
2022-12-15T00:54:06.344Z,-5.07
2022-12-15T00:56:51.343Z,-5.19
2022-12-15T00:59:38.746Z,-5.10
2022-12-15T01:02:24.368Z,-5.10
2022-12-15T01:05:09.369Z,-5.09
2022-12-15T01:07:54.257Z,-5.17
2022-12-15T01:10:39.560Z,-5.12
2022-12-15T01:13:25.435Z,-5.13
2022-12-15T01:16:10.751Z,-5.14
2022-12-15T01:18:56.142Z,-5.24
2022-12-15T01:21:24.938Z,-5.23
2022-12-15T01:23:54.895Z,-5.17
2022-12-15T01:26:23.958Z,-5.18
2022-12-15T01:28:50.510Z,-5.26
2022-12-15T01:31:17.128Z,-5.17
2022-12-15T01:33:48.437Z,-5.27
2022-12-15T01:36:14.976Z,-5.21
2022-12-15T01:38:45.093Z,-5.22
2022-12-15T01:41:17.000Z,-5.36
2022-12-15T01:43:43.536Z,-5.23
2022-12-15T01:46:13.979Z,-5.24
2022-12-15T01:48:46.739Z,-5.25
2022-12-15T01:51:31.553Z,-5.27
2022-12-15T01:54:00.309Z,-5.30
2022-12-15T01:56:37.061Z,-5.32
2022-12-15T01:59:07.644Z,-5.32
2022-12-15T02:01:34.663Z,-5.33
2022-12-15T02:04:01.804Z,-5.47
2022-12-15T02:06:29.640Z,-5.40
2022-12-15T02:08:59.577Z,-5.41
2022-12-15T02:11:45.025Z,-5.37
2022-12-15T02:14:14.649Z,-5.43
2022-12-15T02:16:47.230Z,-5.37
2022-12-15T02:19:35.140Z,-5.38
2022-12-15T02:22:23.109Z,-5.38
2022-12-15T02:25:06.552Z,-5.41
2022-12-15T02:28:05.217Z,-5.39
2022-12-15T02:31:12.694Z,-5.39
2022-12-15T02:33:50.678Z,-5.38
2022-12-15T02:36:26.656Z,-5.36
2022-12-15T02:38:55.644Z,-5.38
2022-12-15T02:41:32.485Z,-5.42
2022-12-15T02:43:59.712Z,-5.39
2022-12-15T02:46:42.158Z,-5.38
2022-12-15T02:49:27.741Z,-5.43
2022-12-15T02:52:24.654Z,-5.39
2022-12-15T02:55:11.405Z,-5.36
2022-12-15T02:57:43.793Z,-5.35
2022-12-15T03:00:12.059Z,-5.40
2022-12-15T03:02:42.597Z,-5.37
2022-12-15T03:05:09.956Z,-5.42
2022-12-15T03:07:36.692Z,-5.41
2022-12-15T03:10:06.305Z,-5.38
2022-12-15T03:12:32.888Z,-5.35
2022-12-15T03:14:59.437Z,-5.55
2022-12-15T03:17:25.963Z,-5.37
2022-12-15T03:19:52.800Z,-5.38
2022-12-15T03:22:19.318Z,-5.40
2022-12-15T03:24:45.798Z,-5.45
2022-12-15T03:27:12.357Z,-5.39
2022-12-15T03:29:38.908Z,-5.45
2022-12-15T03:32:08.627Z,-5.41
2022-12-15T03:34:35.273Z,-5.40
2022-12-15T03:37:04.147Z,-5.40
2022-12-15T03:39:33.435Z,-5.43
2022-12-15T03:41:59.995Z,-5.39
2022-12-15T03:44:26.605Z,-5.44
2022-12-15T03:47:03.526Z,-5.43
2022-12-15T03:49:30.482Z,-5.49
2022-12-15T03:51:59.330Z,-5.45
2022-12-15T03:54:25.876Z,-5.49
2022-12-15T03:56:55.043Z,-5.48
2022-12-15T03:59:21.656Z,-5.51
2022-12-15T04:01:49.383Z,-5.44
2022-12-15T04:04:16.125Z,-5.44
2022-12-15T04:06:42.653Z,-5.47
2022-12-15T04:09:09.198Z,-5.54
2022-12-15T04:11:38.081Z,-5.46
2022-12-15T04:14:04.735Z,-5.49
2022-12-15T04:16:31.976Z,-5.45
2022-12-15T04:19:17.120Z,-5.51
2022-12-15T04:21:43.714Z,-5.51
2022-12-15T04:24:28.906Z,-5.45
2022-12-15T04:27:13.745Z,-5.46
2022-12-15T04:29:58.661Z,-5.49
2022-12-15T04:32:44.069Z,-5.49
2022-12-15T04:35:35.170Z,-5.54
2022-12-15T04:38:20.554Z,-5.55
2022-12-15T04:41:05.868Z,-5.54
2022-12-15T04:43:51.373Z,-5.58
2022-12-15T04:46:38.971Z,-5.63
2022-12-15T04:49:24.114Z,-5.58
2022-12-15T04:52:09.095Z,-5.64
2022-12-15T04:54:54.476Z,-5.63
2022-12-15T04:57:39.403Z,-5.58
2022-12-15T05:00:25.396Z,-5.61
2022-12-15T05:03:16.528Z,-5.61
2022-12-15T05:06:03.323Z,-5.71
2022-12-15T05:08:50.257Z,-5.60
2022-12-15T05:11:35.713Z,-5.60
2022-12-15T05:14:21.321Z,-5.61
2022-12-15T05:17:06.796Z,-5.85
2022-12-15T05:19:52.223Z,-5.58
2022-12-15T05:22:39.981Z,-5.58
2022-12-15T05:25:25.701Z,-5.57
2022-12-15T05:28:10.623Z,-5.62
2022-12-15T05:30:55.613Z,-5.58
2022-12-15T05:33:24.463Z,-5.55
2022-12-15T05:35:51.060Z,-5.60
2022-12-15T05:38:18.557Z,-5.62
2022-12-15T05:40:45.060Z,-5.63
2022-12-15T05:43:11.635Z,-5.53
2022-12-15T05:45:38.192Z,-5.57
2022-12-15T05:48:05.006Z,-5.52
2022-12-15T05:50:33.853Z,-5.66
2022-12-15T05:53:00.383Z,-5.53
2022-12-15T05:55:26.995Z,-5.58
2022-12-15T05:57:54.389Z,-5.53
2022-12-15T06:00:21.426Z,-5.70
2022-12-15T06:02:48.380Z,-5.53
2022-12-15T06:05:17.196Z,-5.59
2022-12-15T06:07:43.695Z,-5.51
2022-12-15T06:10:10.630Z,-5.51
2022-12-15T06:12:39.477Z,-5.52
2022-12-15T06:15:08.854Z,-5.53
2022-12-15T06:17:35.505Z,-5.56
2022-12-15T06:20:07.570Z,-5.55
2022-12-15T06:22:36.304Z,-5.55
2022-12-15T06:25:02.963Z,-5.56
2022-12-15T06:27:37.638Z,-5.57
2022-12-15T06:30:04.875Z,-5.56
2022-12-15T06:32:35.357Z,-5.55
2022-12-15T06:35:02.106Z,-5.55
2022-12-15T06:37:28.678Z,-5.57
2022-12-15T06:39:55.171Z,-5.57
2022-12-15T06:42:24.106Z,-5.57
2022-12-15T06:44:50.763Z,-5.69
2022-12-15T06:47:17.951Z,-5.60
2022-12-15T06:49:44.489Z,-5.60
2022-12-15T06:52:13.473Z,-5.57
2022-12-15T06:54:40.023Z,-5.65
2022-12-15T06:57:06.887Z,-5.65
2022-12-15T06:59:33.490Z,-5.69
2022-12-15T07:02:00.699Z,-5.58
2022-12-15T07:04:27.498Z,-5.59
2022-12-15T07:06:54.149Z,-5.66
2022-12-15T07:09:20.724Z,-5.58
2022-12-15T07:11:50.311Z,-5.58
2022-12-15T07:14:16.881Z,-5.58
2022-12-15T07:16:46.197Z,-5.63
2022-12-15T07:19:13.371Z,-5.64
2022-12-15T07:21:41.164Z,-5.66
2022-12-15T07:24:11.601Z,-5.63
2022-12-15T07:26:38.274Z,-5.60
2022-12-15T07:29:04.928Z,-5.60
2022-12-15T07:31:32.221Z,-5.59
2022-12-15T07:33:59.407Z,-5.61
2022-12-15T07:36:27.545Z,-5.59
2022-12-15T07:39:00.954Z,-5.58
2022-12-15T07:41:30.508Z,-5.59
2022-12-15T07:43:59.912Z,-5.67
2022-12-15T07:46:26.596Z,-5.57
2022-12-15T07:48:53.496Z,-5.55
2022-12-15T07:51:21.589Z,-5.55
2022-12-15T07:53:51.389Z,-5.54
2022-12-15T07:56:21.210Z,-5.52
2022-12-15T07:58:48.187Z,-5.51
2022-12-15T08:01:15.660Z,-5.52
2022-12-15T08:03:42.540Z,-5.17
2022-12-15T08:06:13.053Z,-5.29
2022-12-15T08:08:40.501Z,-5.33
2022-12-15T08:11:09.361Z,-5.29
2022-12-15T08:16:23.287Z,-4.77
2022-12-15T08:18:49.922Z,-4.99
2022-12-15T08:21:17.835Z,-5.02
2022-12-15T08:23:44.571Z,-5.03
2022-12-15T08:26:16.942Z,-5.11
2022-12-15T08:28:43.701Z,-5.02
2022-12-15T08:31:18.679Z,-5.18
2022-12-15T08:33:46.389Z,-5.06
2022-12-15T08:36:15.300Z,-5.02
2022-12-15T08:38:46.022Z,-4.98
2022-12-15T08:41:18.427Z,-4.96
2022-12-15T08:43:48.992Z,-4.93
2022-12-15T08:46:23.527Z,-4.94
2022-12-15T08:48:52.892Z,-4.88
2022-12-15T08:51:20.121Z,-4.89
2022-12-15T08:53:47.356Z,-4.83
2022-12-15T08:56:22.204Z,-4.75
2022-12-15T08:58:50.457Z,-4.71
2022-12-15T09:01:24.172Z,-4.65
2022-12-15T09:03:55.924Z,-4.62
2022-12-15T09:06:31.937Z,-4.58
2022-12-15T09:09:00.893Z,-4.61
2022-12-15T09:11:29.133Z,-4.50
2022-12-15T09:13:56.152Z,-4.44
2022-12-15T09:16:23.532Z,-4.39
2022-12-15T09:18:54.561Z,-4.36
2022-12-15T09:21:23.304Z,-4.34
2022-12-15T09:23:52.035Z,-4.31
2022-12-15T09:26:22.600Z,-4.26
2022-12-15T09:28:50.656Z,-4.14
2022-12-15T09:31:23.512Z,-4.09
2022-12-15T09:33:52.842Z,-4.00
2022-12-15T09:36:19.758Z,-3.85
2022-12-15T09:38:46.381Z,-3.62
2022-12-15T09:41:12.826Z,-3.36
2022-12-15T09:44:13.040Z,-3.13
2022-12-15T09:46:57.907Z,-2.97
2022-12-15T09:49:36.596Z,-2.86
2022-12-15T09:52:14.640Z,-2.80
2022-12-15T09:54:43.263Z,-2.62
2022-12-15T09:57:50.747Z,-2.48
2022-12-15T10:00:55.144Z,-2.36
2022-12-15T10:03:45.077Z,-2.26
2022-12-15T10:06:18.485Z,-2.13
2022-12-15T10:08:57.583Z,-2.02
2022-12-15T10:11:24.116Z,-1.93
2022-12-15T10:13:59.869Z,-1.88
2022-12-15T10:16:34.429Z,-1.86
2022-12-15T10:19:03.932Z,-1.71
2022-12-15T10:21:31.724Z,-1.63
2022-12-15T10:24:12.299Z,-1.64
2022-12-15T10:26:41.411Z,-1.50
2022-12-15T10:29:50.983Z,-1.40
2022-12-15T10:32:39.352Z,-1.29
2022-12-15T10:35:33.900Z,-1.18
2022-12-15T10:38:03.786Z,-1.15
2022-12-15T10:43:37.192Z,-0.93
2022-12-15T10:46:19.621Z,-0.85
2022-12-15T10:48:49.172Z,-0.76
2022-12-15T10:51:24.938Z,-0.79
2022-12-15T10:54:15.665Z,-0.61
2022-12-15T10:56:51.348Z,-0.50
2022-12-15T10:59:37.097Z,-0.41
2022-12-15T11:02:25.209Z,-0.30
2022-12-15T11:05:04.841Z,-0.29
2022-12-15T11:07:37.472Z,-0.14
2022-12-15T11:10:53.267Z,-0.08
2022-12-15T11:13:23.096Z,0.02
2022-12-15T11:15:53.282Z,0.08
2022-12-15T11:18:24.537Z,0.15
2022-12-15T11:21:02.576Z,0.21
2022-12-15T11:23:46.790Z,0.25
2022-12-15T11:26:22.993Z,0.30
2022-12-15T11:29:20.796Z,0.25
2022-12-15T11:31:53.225Z,0.44
2022-12-15T11:34:37.791Z,0.54
2022-12-15T11:37:16.433Z,0.60
2022-12-15T11:40:13.262Z,0.65
2022-12-15T11:43:12.613Z,0.76
2022-12-15T11:46:10.103Z,0.92
2022-12-15T11:49:11.304Z,1.00
2022-12-15T11:52:02.321Z,1.08
2022-12-15T11:54:46.981Z,1.15
2022-12-15T11:57:30.677Z,1.21
2022-12-15T12:00:03.269Z,1.31
2022-12-15T12:02:39.243Z,1.38
2022-12-15T12:05:44.793Z,1.44
2022-12-15T12:08:43.909Z,1.51
2022-12-15T12:11:20.078Z,1.57
2022-12-15T12:14:11.691Z,1.59
2022-12-15T12:16:50.570Z,1.67
2022-12-15T12:19:31.936Z,1.74
2022-12-15T12:22:20.185Z,1.79
2022-12-15T12:25:02.216Z,1.85
2022-12-15T12:27:53.161Z,1.91
2022-12-15T12:30:31.330Z,1.94
2022-12-15T12:33:37.990Z,1.97
2022-12-15T12:36:16.073Z,1.99
2022-12-15T12:38:56.099Z,2.04
2022-12-15T12:41:53.439Z,2.04
2022-12-15T12:44:34.250Z,2.05
2022-12-15T12:47:10.215Z,2.05
2022-12-15T12:49:44.012Z,2.00
2022-12-15T12:52:28.123Z,2.07
2022-12-15T12:54:59.748Z,2.10
2022-12-15T12:57:36.885Z,2.14
2022-12-15T13:00:21.287Z,2.38
2022-12-15T13:03:09.990Z,2.53
2022-12-15T13:05:38.058Z,2.76
2022-12-15T13:08:05.107Z,2.90
2022-12-15T13:10:37.413Z,2.92
2022-12-15T13:13:16.325Z,2.93
2022-12-15T13:15:50.974Z,2.99
2022-12-15T13:18:25.487Z,3.06
2022-12-15T13:20:57.071Z,3.06
2022-12-15T13:23:23.634Z,3.08
2022-12-15T13:25:55.987Z,3.13
2022-12-15T13:28:29.079Z,3.17
2022-12-15T13:31:17.982Z,3.14
2022-12-15T13:33:57.369Z,3.05
2022-12-15T13:36:43.536Z,2.98
2022-12-15T13:39:12.896Z,2.96
2022-12-15T13:42:23.647Z,2.91
2022-12-15T13:44:41.220Z,2.85
2022-12-15T13:47:17.760Z,2.84
2022-12-15T13:50:08.955Z,2.85
2022-12-15T13:53:17.351Z,2.76
2022-12-15T13:55:41.839Z,2.61
2022-12-15T13:58:11.411Z,2.52
2022-12-15T14:00:39.850Z,2.42
2022-12-15T14:03:11.150Z,2.35
2022-12-15T14:05:43.062Z,2.36
2022-12-15T14:08:19.034Z,2.41
2022-12-15T14:10:52.680Z,2.41
2022-12-15T14:13:50.568Z,2.47
2022-12-15T14:16:23.062Z,2.46
2022-12-15T14:19:08.551Z,2.45
2022-12-15T14:21:35.323Z,2.44
2022-12-15T14:24:37.136Z,2.34
2022-12-15T14:26:50.731Z,2.35
2022-12-15T14:29:17.509Z,2.25
2022-12-15T14:31:48.295Z,2.31
2022-12-15T14:34:29.237Z,2.32
2022-12-15T14:36:59.521Z,2.26
2022-12-15T14:39:50.181Z,2.21
2022-12-15T14:42:25.863Z,2.09
2022-12-15T14:44:57.848Z,2.00
2022-12-15T14:48:30.313Z,1.84
2022-12-15T14:50:47.790Z,1.77
2022-12-15T14:53:19.910Z,1.79
2022-12-15T14:55:46.573Z,1.79
2022-12-15T14:58:34.678Z,1.76
2022-12-15T15:01:21.427Z,1.73
2022-12-15T15:03:06.720Z,-1.06
2022-12-15T15:03:57.524Z,1.70
2022-12-15T15:06:33.537Z,1.66
2022-12-15T15:09:15.060Z,1.61
2022-12-15T15:11:42.961Z,1.63
2022-12-15T15:14:15.537Z,1.61
2022-12-15T15:16:42.977Z,1.53
2022-12-15T15:19:21.497Z,1.42
2022-12-15T15:21:48.493Z,1.42
2022-12-15T15:24:17.341Z,1.33
2022-12-15T15:26:44.135Z,1.16
2022-12-15T15:29:37.323Z,1.08
2022-12-15T15:32:16.048Z,0.93
2022-12-15T15:34:45.045Z,0.85
2022-12-15T15:37:24.950Z,0.75
2022-12-15T15:39:55.905Z,0.66
2022-12-15T15:42:26.583Z,0.97
2022-12-15T15:45:00.510Z,0.69
2022-12-15T15:47:27.451Z,0.56
2022-12-15T15:49:58.653Z,0.47
2022-12-15T15:52:25.917Z,0.29
2022-12-15T15:54:53.579Z,0.30
2022-12-15T15:57:20.359Z,0.19
2022-12-15T15:59:47.842Z,0.12
2022-12-15T16:02:14.895Z,0.05
2022-12-15T16:04:43.353Z,-0.10
2022-12-15T16:07:28.681Z,-0.11
2022-12-15T16:09:58.040Z,-0.19
2022-12-15T16:12:29.861Z,-0.32
2022-12-15T16:14:56.501Z,-0.29
2022-12-15T16:17:24.381Z,-0.13
2022-12-15T16:19:51.058Z,-0.42
2022-12-15T16:22:20.299Z,-0.37
2022-12-15T16:24:47.421Z,-0.50
2022-12-15T16:27:15.313Z,-0.47
2022-12-15T16:29:41.913Z,0.01
2022-12-15T16:32:10.696Z,-0.32
2022-12-15T16:34:37.316Z,-0.27
2022-12-15T16:37:14.460Z,-0.13
2022-12-15T16:39:41.030Z,-0.39
2022-12-15T16:42:12.054Z,-0.48
2022-12-15T16:44:38.574Z,-0.58
2022-12-15T16:47:05.179Z,-0.62
2022-12-15T16:49:36.607Z,-0.16
2022-12-15T16:52:06.503Z,0.12
2022-12-15T16:54:33.215Z,-0.32
2022-12-15T16:57:02.203Z,-0.56
2022-12-15T16:59:33.920Z,-0.64
2022-12-15T17:02:01.605Z,-0.70
2022-12-15T17:04:28.229Z,-0.72
2022-12-15T17:06:57.107Z,-0.86
2022-12-15T17:09:25.611Z,-0.96
2022-12-15T17:12:02.424Z,-0.96
2022-12-15T17:14:28.968Z,-0.98
2022-12-15T17:16:55.700Z,-1.02
2022-12-15T17:19:22.255Z,-1.07
2022-12-15T17:21:52.485Z,-1.18
2022-12-15T17:24:22.333Z,-1.18
2022-12-15T17:26:51.359Z,-1.22
2022-12-15T17:29:21.331Z,-1.27
2022-12-15T17:31:48.027Z,-1.31
2022-12-15T17:34:36.250Z,-1.40
2022-12-15T17:37:07.581Z,-1.41
2022-12-15T17:39:35.304Z,-1.44
2022-12-15T17:42:16.545Z,-1.57
2022-12-15T17:44:46.639Z,-1.53
2022-12-15T17:47:14.698Z,-1.34
2022-12-15T17:49:41.528Z,-1.49
2022-12-15T17:52:16.651Z,-1.52
2022-12-15T17:54:46.799Z,-1.56
2022-12-15T17:57:13.374Z,-1.62
2022-12-15T17:59:39.946Z,-1.70
2022-12-15T18:02:08.730Z,-1.64
2022-12-15T18:04:35.349Z,-1.73
2022-12-15T18:07:02.672Z,-1.74
2022-12-15T18:09:30.776Z,-1.58
2022-12-15T18:11:57.365Z,-1.68
2022-12-15T18:14:27.752Z,-1.88
2022-12-15T18:16:56.355Z,-1.74
2022-12-15T18:19:23.313Z,-1.80
2022-12-15T18:21:49.853Z,-1.80
2022-12-15T18:24:19.266Z,-1.80
2022-12-15T18:26:45.790Z,-1.84
2022-12-15T18:29:18.181Z,-1.91
2022-12-15T18:31:49.408Z,-1.90
2022-12-15T18:34:19.327Z,-1.89
2022-12-15T18:36:45.936Z,-1.96
2022-12-15T18:39:26.958Z,-1.95
2022-12-15T18:41:55.948Z,-1.98
2022-12-15T18:44:25.851Z,-2.13
2022-12-15T18:46:55.542Z,-2.02
2022-12-15T18:49:23.587Z,-2.03
2022-12-15T18:51:50.603Z,-2.04
2022-12-15T18:54:26.731Z,-2.05
2022-12-15T18:56:55.781Z,-2.23
2022-12-15T18:59:22.337Z,-2.15
2022-12-15T19:01:49.181Z,-2.17
2022-12-15T19:04:15.948Z,-2.20
2022-12-15T19:06:45.174Z,-2.15
2022-12-15T19:09:16.307Z,-2.19
2022-12-15T19:12:08.039Z,-2.21
2022-12-15T19:14:43.098Z,-2.24
2022-12-15T19:17:40.330Z,-2.31
2022-12-15T19:20:33.423Z,-2.34
2022-12-15T19:23:00.237Z,-2.30
2022-12-15T19:25:30.833Z,-2.33
2022-12-15T19:27:59.725Z,-2.32
2022-12-15T19:30:29.335Z,-2.34
2022-12-15T19:32:56.361Z,-2.40
2022-12-15T19:35:25.194Z,-2.35
2022-12-15T19:37:55.162Z,-2.35
2022-12-15T19:40:29.303Z,-2.35
2022-12-15T19:42:56.544Z,-2.38
2022-12-15T19:45:25.413Z,-2.39
2022-12-15T19:47:54.360Z,-2.27
2022-12-15T19:50:24.210Z,-2.24
2022-12-15T19:52:55.253Z,-1.99
2022-12-15T19:55:27.933Z,-2.07
2022-12-15T19:57:54.426Z,-2.09
2022-12-15T20:00:27.368Z,-2.03
2022-12-15T20:02:57.828Z,-2.01
2022-12-15T20:05:27.507Z,-2.01
2022-12-15T20:07:54.991Z,-1.99
2022-12-15T20:10:32.368Z,-2.00
2022-12-15T20:13:03.339Z,-2.05
2022-12-15T20:15:29.919Z,-2.10
2022-12-15T20:17:57.066Z,-2.07
2022-12-15T20:20:26.997Z,-2.14
2022-12-15T20:22:56.447Z,-2.13
2022-12-15T20:25:26.764Z,-2.15
2022-12-15T20:27:53.773Z,-2.18
2022-12-15T20:30:27.633Z,-2.21
2022-12-15T20:32:54.296Z,-2.31
2022-12-15T20:35:24.720Z,-2.26
2022-12-15T20:37:52.593Z,-2.32
2022-12-15T20:40:25.547Z,-2.33
2022-12-15T20:42:56.643Z,-2.36
2022-12-15T20:45:28.104Z,-2.08
2022-12-15T20:47:58.011Z,-2.27
2022-12-15T20:50:37.369Z,-2.32
2022-12-15T20:53:06.075Z,-2.45
2022-12-15T20:55:32.771Z,-2.36
2022-12-15T20:57:59.300Z,-2.39
2022-12-15T21:00:25.856Z,-2.44
2022-12-15T21:02:55.244Z,-2.53
2022-12-15T21:05:24.892Z,-2.50
2022-12-15T21:07:52.402Z,-2.53
2022-12-15T21:10:20.546Z,-2.64
2022-12-15T21:12:49.312Z,-2.71
2022-12-15T21:15:20.350Z,-2.71
2022-12-15T21:17:57.936Z,-2.67
2022-12-15T21:20:30.358Z,-2.68
2022-12-15T21:22:59.649Z,-2.70
2022-12-15T21:25:26.676Z,-2.77
2022-12-15T21:27:53.267Z,-2.79
2022-12-15T21:30:22.742Z,-2.80
2022-12-15T21:32:50.878Z,-2.80
2022-12-15T21:35:19.091Z,-2.82
2022-12-15T21:37:49.628Z,-2.73
2022-12-15T21:40:20.722Z,-2.77
2022-12-15T21:42:48.753Z,-2.66
2022-12-15T21:45:20.774Z,-2.50
2022-12-15T21:48:06.903Z,-2.14
2022-12-15T21:50:34.475Z,-2.53
2022-12-15T21:53:04.950Z,-2.63
2022-12-15T21:55:33.971Z,-2.69
2022-12-15T21:58:00.624Z,-2.70
2022-12-15T22:00:27.391Z,-2.78
2022-12-15T22:02:54.500Z,-2.74
2022-12-15T22:05:24.516Z,-2.84
2022-12-15T22:07:51.596Z,-2.83
2022-12-15T22:10:18.286Z,-2.90
2022-12-15T22:12:50.706Z,-2.90
2022-12-15T22:15:24.079Z,-2.95
2022-12-15T22:17:50.765Z,-3.07
2022-12-15T22:20:20.771Z,-3.00
2022-12-15T22:22:50.179Z,-3.07
2022-12-15T22:25:22.004Z,-3.06
2022-12-15T22:27:48.869Z,-3.11
2022-12-15T22:30:21.042Z,-3.09
2022-12-15T22:32:47.787Z,-3.13
2022-12-15T22:35:22.445Z,-3.25
2022-12-15T22:37:54.033Z,-3.21
2022-12-15T22:40:23.273Z,-3.20
2022-12-15T22:42:54.855Z,-3.23
2022-12-15T22:45:24.172Z,-3.18
2022-12-15T22:47:52.386Z,-3.12
2022-12-15T22:50:22.327Z,-3.11
2022-12-15T22:52:51.109Z,-3.14
2022-12-15T22:55:20.586Z,-3.10
2022-12-15T22:57:57.657Z,-3.13
2022-12-15T23:00:24.215Z,-3.17
2022-12-15T23:02:51.044Z,-3.15
2022-12-15T23:05:20.139Z,-3.20
2022-12-15T23:07:47.163Z,-3.18
2022-12-15T23:10:35.091Z,-3.23
2022-12-15T23:13:01.602Z,-3.23
2022-12-15T23:15:50.343Z,-3.18
2022-12-15T23:18:18.454Z,-3.17
2022-12-15T23:20:45.512Z,-3.23
2022-12-15T23:23:12.542Z,-3.26
2022-12-15T23:25:39.083Z,-3.20
2022-12-15T23:28:05.686Z,-3.23
2022-12-15T23:30:34.709Z,-3.30
2022-12-15T23:33:01.277Z,-3.44
2022-12-15T23:35:30.085Z,-3.29
2022-12-15T23:37:58.251Z,-3.42
2022-12-15T23:40:27.039Z,-3.29
2022-12-15T23:42:55.846Z,-3.28
2022-12-15T23:45:27.987Z,-3.27
2022-12-15T23:47:54.508Z,-3.29
2022-12-15T23:50:21.081Z,-3.29
2022-12-15T23:52:51.278Z,-3.28
2022-12-15T23:55:19.220Z,-3.28
2022-12-15T23:57:48.395Z,-3.20
